createdAt,value
2023-04-30T00:00:12.284Z,15.96
2023-04-30T00:02:45.476Z,15.64
2023-04-30T00:04:58.195Z,15.76
2023-04-30T00:07:11.500Z,15.68
2023-04-30T00:09:23.967Z,15.58
2023-04-30T00:11:36.289Z,15.38
2023-04-30T00:13:49.005Z,15.68
2023-04-30T00:16:01.378Z,15.78
2023-04-30T00:18:13.943Z,15.92
2023-04-30T00:20:26.393Z,16.08
2023-04-30T00:22:39.318Z,16.20
2023-04-30T00:24:51.746Z,16.10
2023-04-30T00:27:04.188Z,15.70
2023-04-30T00:29:17.562Z,16.01
2023-04-30T00:31:30.095Z,16.20
2023-04-30T00:33:42.848Z,16.10
2023-04-30T00:35:55.250Z,16.22
2023-04-30T00:38:07.985Z,16.25
2023-04-30T00:40:20.870Z,16.25
2023-04-30T00:42:33.210Z,16.35
2023-04-30T00:44:45.632Z,16.30
2023-04-30T00:46:58.129Z,16.34
2023-04-30T00:49:10.633Z,16.31
2023-04-30T00:51:23.357Z,16.34
2023-04-30T00:53:36.803Z,16.43
2023-04-30T00:55:51.107Z,16.73
2023-04-30T00:58:04.330Z,17.03
2023-04-30T01:00:20.613Z,17.40
2023-04-30T01:02:33.622Z,17.45
2023-04-30T01:04:46.646Z,17.71
2023-04-30T01:06:59.705Z,18.02
2023-04-30T01:09:12.825Z,18.06
2023-04-30T01:11:37.574Z,18.36
2023-04-30T01:13:58.697Z,18.71
2023-04-30T01:16:19.069Z,18.84
2023-04-30T01:18:37.087Z,19.08
2023-04-30T01:20:52.183Z,19.23
2023-04-30T01:23:15.262Z,19.47
2023-04-30T01:25:56.635Z,19.73
2023-04-30T01:28:21.194Z,19.97
2023-04-30T01:30:35.970Z,20.03
2023-04-30T01:32:49.031Z,20.11
2023-04-30T01:35:03.043Z,20.30
2023-04-30T01:37:25.661Z,20.42
2023-04-30T01:39:59.334Z,20.75
2023-04-30T01:42:24.121Z,21.13
2023-04-30T01:44:53.248Z,21.29
2023-04-30T01:47:13.082Z,21.59
2023-04-30T01:49:35.652Z,21.75
2023-04-30T01:51:49.295Z,22.06
2023-04-30T01:54:06.548Z,22.33
2023-04-30T01:56:29.083Z,22.45
2023-04-30T01:58:42.407Z,22.55
2023-04-30T02:00:55.442Z,22.83
2023-04-30T02:03:09.319Z,23.06
2023-04-30T02:05:22.710Z,23.26
2023-04-30T02:07:43.777Z,23.60
2023-04-30T02:09:56.219Z,24.08
2023-04-30T02:12:08.936Z,24.25
2023-04-30T02:14:21.925Z,24.63
2023-04-30T02:16:38.059Z,24.88
2023-04-30T02:18:51.022Z,25.10
2023-04-30T02:21:03.569Z,25.39
2023-04-30T02:23:17.357Z,25.63
2023-04-30T02:25:29.995Z,25.85
2023-04-30T02:27:43.899Z,26.13
2023-04-30T02:29:57.471Z,26.18
2023-04-30T02:32:12.827Z,26.51
2023-04-30T02:34:26.065Z,26.55
2023-04-30T02:36:39.176Z,26.91
2023-04-30T02:38:51.929Z,27.01
2023-04-30T02:41:04.454Z,27.21
2023-04-30T02:43:17.897Z,27.29
2023-04-30T02:45:30.456Z,27.37
2023-04-30T02:47:43.079Z,27.58
2023-04-30T02:49:55.955Z,27.68
2023-04-30T02:52:10.710Z,27.81
2023-04-30T02:54:23.671Z,28.09
2023-04-30T02:56:36.122Z,28.10
2023-04-30T02:58:49.148Z,28.21
2023-04-30T03:01:01.477Z,28.39
2023-04-30T03:03:14.723Z,28.37
2023-04-30T03:05:27.738Z,28.31
2023-04-30T03:07:40.274Z,28.42
2023-04-30T03:09:53.842Z,28.48
2023-04-30T03:12:06.858Z,28.68
2023-04-30T03:14:19.275Z,28.79
2023-04-30T03:16:32.123Z,28.70
2023-04-30T03:18:44.991Z,28.60
2023-04-30T03:20:57.457Z,28.45
2023-04-30T03:23:09.924Z,28.63
2023-04-30T03:25:23.699Z,28.44
2023-04-30T03:27:36.114Z,28.57
2023-04-30T03:29:49.175Z,28.76
2023-04-30T03:32:01.794Z,28.51
2023-04-30T03:34:14.975Z,28.53
2023-04-30T03:36:28.396Z,28.73
2023-04-30T03:38:41.465Z,28.72
2023-04-30T03:40:53.895Z,28.88
2023-04-30T03:43:06.634Z,28.99
2023-04-30T03:45:20.396Z,29.49
2023-04-30T03:47:34.083Z,29.60
2023-04-30T03:49:50.176Z,29.60
2023-04-30T03:52:03.635Z,29.91
2023-04-30T03:54:19.894Z,30.11
2023-04-30T03:56:32.571Z,30.31
2023-04-30T03:58:45.367Z,30.66
2023-04-30T04:00:58.301Z,31.17
2023-04-30T04:03:11.241Z,31.85
2023-04-30T04:05:26.529Z,32.54
2023-04-30T04:07:39.156Z,33.05
2023-04-30T04:09:52.084Z,33.46
2023-04-30T04:12:04.961Z,33.90
2023-04-30T04:14:17.597Z,34.35
2023-04-30T04:16:30.137Z,34.56
2023-04-30T04:18:42.786Z,34.89
2023-04-30T04:20:55.626Z,35.28
2023-04-30T04:23:08.244Z,35.42
2023-04-30T04:25:21.612Z,35.68
2023-04-30T04:27:34.480Z,35.93
2023-04-30T04:29:47.580Z,36.17
2023-04-30T04:32:01.457Z,36.37
2023-04-30T04:34:16.196Z,36.68
2023-04-30T04:36:29.920Z,36.78
2023-04-30T04:38:42.576Z,36.99
2023-04-30T04:41:03.849Z,37.18
2023-04-30T04:43:16.887Z,37.19
2023-04-30T04:45:29.672Z,37.44
2023-04-30T04:47:42.768Z,37.53
2023-04-30T04:49:56.128Z,37.46
2023-04-30T04:52:08.699Z,37.64
2023-04-30T04:54:21.190Z,37.80
2023-04-30T04:56:33.841Z,38.15
2023-04-30T04:58:48.594Z,38.13
2023-04-30T05:01:01.090Z,38.15
2023-04-30T05:03:15.529Z,38.09
2023-04-30T05:05:27.982Z,38.32
2023-04-30T05:07:41.054Z,38.50
2023-04-30T05:09:54.118Z,38.55
2023-04-30T05:12:06.744Z,38.73
2023-04-30T05:14:19.530Z,38.88
2023-04-30T05:16:31.876Z,38.86
2023-04-30T05:18:44.419Z,39.08
2023-04-30T05:20:56.670Z,38.95
2023-04-30T05:23:09.370Z,38.82
2023-04-30T05:25:21.944Z,38.84
2023-04-30T05:27:34.200Z,38.87
2023-04-30T05:29:47.187Z,38.80
2023-04-30T05:31:59.591Z,38.82
2023-04-30T05:34:12.313Z,38.91
2023-04-30T05:36:25.660Z,39.04
2023-04-30T05:38:37.947Z,39.20
2023-04-30T05:40:50.687Z,39.24
2023-04-30T05:43:03.304Z,39.52
2023-04-30T05:45:18.366Z,39.69
2023-04-30T05:47:30.822Z,39.77
2023-04-30T05:49:43.166Z,39.97
2023-04-30T05:51:56.273Z,40.10
2023-04-30T05:54:09.107Z,40.35
2023-04-30T05:56:22.095Z,40.49
2023-04-30T05:58:34.883Z,40.55
2023-04-30T06:00:47.853Z,40.64
2023-04-30T06:03:00.419Z,40.69
2023-04-30T06:05:16.078Z,40.56
2023-04-30T06:07:28.810Z,40.71
2023-04-30T06:09:41.115Z,40.91
2023-04-30T06:11:53.706Z,40.97
2023-04-30T06:14:06.583Z,41.01
2023-04-30T06:16:19.150Z,41.10
2023-04-30T06:18:31.753Z,41.28
2023-04-30T06:20:44.213Z,41.43
2023-04-30T06:22:56.677Z,41.52
2023-04-30T06:25:09.781Z,41.52
2023-04-30T06:27:22.184Z,41.60
2023-04-30T06:29:34.545Z,41.71
2023-04-30T06:31:47.257Z,41.78
2023-04-30T06:34:00.074Z,41.94
2023-04-30T06:36:13.871Z,42.01
2023-04-30T06:38:30.249Z,42.15
2023-04-30T06:40:42.900Z,42.23
2023-04-30T06:42:58.524Z,42.38
2023-04-30T06:45:12.390Z,42.57
2023-04-30T06:47:26.000Z,42.69
2023-04-30T06:49:38.549Z,42.72
2023-04-30T06:51:51.160Z,42.69
2023-04-30T06:54:03.780Z,42.74
2023-04-30T06:56:16.560Z,42.73
2023-04-30T06:58:29.293Z,42.78
2023-04-30T07:00:41.873Z,42.88
2023-04-30T07:02:54.877Z,42.94
2023-04-30T07:05:07.391Z,43.07
2023-04-30T07:07:20.389Z,43.11
2023-04-30T07:09:33.131Z,43.15
2023-04-30T07:11:46.516Z,43.32
2023-04-30T07:13:59.074Z,43.32
2023-04-30T07:16:13.717Z,43.41
2023-04-30T07:18:26.267Z,43.51
2023-04-30T07:20:38.776Z,43.68
2023-04-30T07:22:51.328Z,43.93
2023-04-30T07:25:03.979Z,44.04
2023-04-30T07:27:16.998Z,44.31
2023-04-30T07:29:29.955Z,44.49
2023-04-30T07:31:42.234Z,44.65
2023-04-30T07:33:56.493Z,44.83
2023-04-30T07:36:09.329Z,44.90
2023-04-30T07:38:22.828Z,45.18
2023-04-30T07:40:36.684Z,45.36
2023-04-30T07:42:49.509Z,45.34
2023-04-30T07:45:01.879Z,45.47
2023-04-30T07:47:14.215Z,45.55
2023-04-30T07:49:27.304Z,45.62
2023-04-30T07:51:39.963Z,45.61
2023-04-30T07:53:54.264Z,45.69
2023-04-30T07:56:07.061Z,45.85
2023-04-30T07:58:20.116Z,45.99
2023-04-30T08:00:32.661Z,46.03
2023-04-30T08:02:47.013Z,46.15
2023-04-30T08:04:59.467Z,46.24
2023-04-30T08:07:11.967Z,46.42
2023-04-30T08:09:24.796Z,46.58
2023-04-30T09:17:04.408Z,49.22
2023-04-30T09:19:24.221Z,49.19
2023-04-30T09:21:37.798Z,49.23
2023-04-30T09:24:03.543Z,49.27
2023-04-30T09:26:22.144Z,49.35
2023-04-30T09:28:32.137Z,49.36
2023-04-30T09:30:42.073Z,49.37
2023-04-30T09:33:00.405Z,49.27
2023-04-30T09:35:30.477Z,49.37
2023-04-30T09:37:42.782Z,49.30
2023-04-30T09:39:54.259Z,49.25
2023-04-30T09:42:13.535Z,49.18
2023-04-30T09:44:42.125Z,49.30
2023-04-30T09:46:54.429Z,49.24
2023-04-30T09:49:04.901Z,49.40
2023-04-30T09:51:14.606Z,49.51
2023-04-30T09:53:24.583Z,49.45
2023-04-30T09:55:34.372Z,49.31
2023-04-30T09:57:43.838Z,49.48
2023-04-30T09:59:55.127Z,49.48
2023-04-30T10:02:05.558Z,49.51
2023-04-30T10:04:15.747Z,49.73
2023-04-30T10:06:30.139Z,49.83
2023-04-30T10:08:44.089Z,49.86
2023-04-30T10:11:02.037Z,49.96
2023-04-30T10:13:16.774Z,50.22
2023-04-30T10:15:34.670Z,50.39
2023-04-30T10:17:46.519Z,50.44
2023-04-30T10:19:59.010Z,50.54
2023-04-30T10:22:19.482Z,50.62
2023-04-30T10:24:33.446Z,50.57
2023-04-30T10:26:46.588Z,50.81
2023-04-30T10:29:08.883Z,50.84
2023-04-30T10:31:20.162Z,51.09
2023-04-30T10:33:36.570Z,51.01
2023-04-30T10:36:00.731Z,51.28
2023-04-30T10:38:17.321Z,51.31
2023-04-30T10:40:28.389Z,51.32
2023-04-30T10:42:40.402Z,51.54
2023-04-30T10:44:50.689Z,51.51
2023-04-30T10:47:05.012Z,51.28
2023-04-30T10:49:20.015Z,51.37
2023-04-30T10:51:49.168Z,51.39
2023-04-30T10:54:02.597Z,51.57
2023-04-30T10:56:12.448Z,51.54
2023-04-30T10:58:34.968Z,51.61
2023-04-30T11:01:08.888Z,51.49
2023-04-30T11:03:24.001Z,51.51
2023-04-30T11:05:40.573Z,51.47
2023-04-30T11:07:58.126Z,51.50
2023-04-30T11:10:10.086Z,51.51
2023-04-30T11:12:22.283Z,51.61
2023-04-30T11:14:33.797Z,51.41
2023-04-30T11:16:57.533Z,51.54
2023-04-30T11:19:15.606Z,51.58
2023-04-30T11:21:24.947Z,51.52
2023-04-30T11:24:04.733Z,51.64
2023-04-30T11:26:17.586Z,51.65
2023-04-30T11:28:28.142Z,51.61
2023-04-30T11:30:38.817Z,51.61
2023-04-30T11:32:52.307Z,51.65
2023-04-30T11:35:02.462Z,51.75
2023-04-30T11:37:20.441Z,51.72
2023-04-30T11:39:31.594Z,52.00
2023-04-30T11:41:47.284Z,51.86
2023-04-30T11:43:59.850Z,52.13
2023-04-30T11:46:29.478Z,52.21
2023-04-30T11:48:53.138Z,52.31
2023-04-30T11:51:20.788Z,52.28
2023-04-30T11:53:41.254Z,52.45
2023-04-30T11:56:04.106Z,52.72
2023-04-30T11:58:38.404Z,52.68
2023-04-30T12:00:48.054Z,53.07
2023-04-30T12:02:58.405Z,52.95
2023-04-30T12:05:19.211Z,52.98
2023-04-30T12:07:31.732Z,53.02
2023-04-30T12:10:01.056Z,53.13
2023-04-30T12:12:10.614Z,53.12
2023-04-30T12:14:40.129Z,53.50
2023-04-30T12:16:50.987Z,53.31
2023-04-30T12:19:00.710Z,53.18
2023-04-30T12:21:21.264Z,53.33
2023-04-30T12:23:34.090Z,53.52
2023-04-30T12:25:47.568Z,53.82
2023-04-30T12:28:07.629Z,53.92
2023-04-30T12:30:37.980Z,54.13
2023-04-30T12:32:58.999Z,54.18
2023-04-30T12:35:31.348Z,54.29
2023-04-30T12:37:46.107Z,54.36
2023-04-30T12:39:57.714Z,54.52
2023-04-30T12:42:10.650Z,54.55
2023-04-30T12:44:25.060Z,54.65
2023-04-30T12:46:35.561Z,54.84
2023-04-30T12:48:48.985Z,54.94
2023-04-30T12:51:02.490Z,55.01
2023-04-30T12:53:12.016Z,55.25
2023-04-30T12:55:23.745Z,55.19
2023-04-30T12:57:35.715Z,55.28
2023-04-30T13:00:02.207Z,55.46
2023-04-30T13:02:16.697Z,55.44
2023-04-30T13:04:26.220Z,55.49
2023-04-30T13:06:35.728Z,55.54
2023-04-30T13:09:05.295Z,55.56
2023-04-30T13:11:14.671Z,55.70
2023-04-30T13:13:27.884Z,55.88
2023-04-30T13:15:48.627Z,55.74
2023-04-30T13:18:01.310Z,55.84
2023-04-30T13:20:13.232Z,55.98
2023-04-30T13:22:24.280Z,55.84
2023-04-30T13:24:33.740Z,56.16
2023-04-30T13:26:52.299Z,56.23
2023-04-30T13:29:05.293Z,56.03
2023-04-30T13:31:14.716Z,56.26
2023-04-30T13:33:24.578Z,56.59
2023-04-30T13:35:34.195Z,56.44
2023-04-30T13:37:43.798Z,56.30
2023-04-30T13:39:56.841Z,56.38
2023-04-30T13:42:06.445Z,56.53
2023-04-30T13:44:19.614Z,56.55
2023-04-30T13:46:32.089Z,56.66
2023-04-30T13:48:41.570Z,56.70
2023-04-30T13:50:50.911Z,56.71
2023-04-30T13:53:10.372Z,56.84
2023-04-30T13:55:20.285Z,57.00
2023-04-30T13:57:40.144Z,57.13
2023-04-30T13:59:49.937Z,56.92
2023-04-30T14:02:10.849Z,57.15
2023-04-30T14:04:20.773Z,56.99
2023-04-30T14:06:50.694Z,57.19
2023-04-30T14:09:00.272Z,57.41
2023-04-30T14:11:12.488Z,57.15
2023-04-30T14:13:21.936Z,57.26
2023-04-30T14:15:35.193Z,57.37
2023-04-30T14:17:45.016Z,57.27
2023-04-30T14:20:05.369Z,57.34
2023-04-30T14:22:15.042Z,57.50
2023-04-30T14:24:24.719Z,57.76
2023-04-30T14:26:34.754Z,57.72
2023-04-30T14:28:44.489Z,57.79
2023-04-30T14:30:56.618Z,57.59
2023-04-30T14:33:06.314Z,57.76
2023-04-30T14:35:16.233Z,57.85
2023-04-30T14:37:25.903Z,58.15
2023-04-30T14:39:35.558Z,57.84
2023-04-30T14:41:45.124Z,57.96
2023-04-30T14:43:54.824Z,57.91
2023-04-30T14:46:04.548Z,58.03
2023-04-30T14:48:14.246Z,57.78
2023-04-30T14:50:33.831Z,57.81
2023-04-30T14:53:03.420Z,57.71
2023-04-30T14:55:33.225Z,57.51
2023-04-30T14:57:45.829Z,57.63
2023-04-30T14:59:57.941Z,57.53
2023-04-30T15:02:07.654Z,57.67
2023-04-30T15:04:17.251Z,57.57
2023-04-30T15:06:27.291Z,57.56
2023-04-30T15:08:36.744Z,57.61
2023-04-30T15:10:56.948Z,57.84
2023-04-30T15:13:06.391Z,57.84
2023-04-30T15:15:19.441Z,58.01
2023-04-30T15:17:38.266Z,58.12
2023-04-30T15:19:48.082Z,58.09
2023-04-30T15:22:17.801Z,58.21
2023-04-30T15:24:27.628Z,58.40
2023-04-30T15:26:37.299Z,58.89
2023-04-30T15:28:58.959Z,59.11
2023-04-30T15:31:08.652Z,59.51
2023-04-30T15:33:21.841Z,59.68
2023-04-30T15:35:31.749Z,60.04
2023-04-30T15:38:01.598Z,60.22
2023-04-30T15:40:15.880Z,60.50
2023-04-30T15:42:25.782Z,60.83
2023-04-30T15:44:38.357Z,61.07
2023-04-30T15:46:47.952Z,61.63
2023-04-30T15:49:00.382Z,61.45
2023-04-30T15:51:09.917Z,61.86
2023-04-30T15:53:22.605Z,62.22
2023-04-30T15:55:31.964Z,62.38
2023-04-30T15:57:53.810Z,62.60
2023-04-30T16:00:01.330Z,62.89
2023-04-30T16:02:21.048Z,62.96
2023-04-30T16:04:30.514Z,63.27
2023-04-30T16:06:40.080Z,63.53
2023-04-30T16:08:51.603Z,63.48
2023-04-30T16:11:01.645Z,63.44
2023-04-30T16:13:11.608Z,63.76
2023-04-30T16:15:25.445Z,63.81
2023-04-30T16:17:34.732Z,64.29
2023-04-30T16:20:04.640Z,64.46
2023-04-30T16:22:14.395Z,64.42
2023-04-30T16:24:27.687Z,64.60
2023-04-30T16:26:37.349Z,64.80
2023-04-30T16:28:46.890Z,65.21
2023-04-30T16:30:56.815Z,65.21
2023-04-30T16:33:16.731Z,65.30
2023-04-30T16:35:26.491Z,65.44
2023-04-30T16:37:46.065Z,65.71
2023-04-30T16:39:56.916Z,65.92
2023-04-30T16:42:27.570Z,65.94
2023-04-30T16:44:37.516Z,65.90
2023-04-30T16:46:50.957Z,65.88
2023-04-30T16:49:00.349Z,66.02
2023-04-30T16:51:09.949Z,65.93
2023-04-30T16:53:19.384Z,65.85
2023-04-30T16:55:29.091Z,65.96
2023-04-30T16:57:38.763Z,65.61
2023-04-30T16:59:58.519Z,65.33
2023-04-30T17:02:08.764Z,65.02
2023-04-30T17:04:18.464Z,64.98
2023-04-30T17:06:28.639Z,64.84
2023-04-30T17:08:41.407Z,64.67
2023-04-30T17:10:55.120Z,64.75
2023-04-30T17:13:05.923Z,64.50
2023-04-30T17:15:15.876Z,64.62
2023-04-30T17:17:25.685Z,64.42
2023-04-30T17:19:45.687Z,64.40
2023-04-30T17:21:55.813Z,64.17
2023-04-30T17:24:05.708Z,64.02
2023-04-30T17:26:18.196Z,63.98
2023-04-30T17:28:28.017Z,63.83
2023-04-30T17:30:37.568Z,63.76
2023-04-30T17:32:47.045Z,63.82
2023-04-30T17:34:58.416Z,63.46
2023-04-30T17:37:09.059Z,63.41
2023-04-30T17:39:19.297Z,63.53
2023-04-30T17:41:32.828Z,63.33
2023-04-30T17:43:42.856Z,63.36
2023-04-30T17:45:56.621Z,63.40
2023-04-30T17:48:06.300Z,63.43
2023-04-30T17:50:17.322Z,63.50
2023-04-30T17:52:27.202Z,63.50
2023-04-30T17:54:36.918Z,63.25
2023-04-30T17:56:46.131Z,63.35
2023-04-30T17:58:56.314Z,63.20
2023-04-30T18:01:26.495Z,62.72
2023-04-30T18:03:36.802Z,62.31
2023-04-30T18:05:51.277Z,62.24
2023-04-30T18:08:04.186Z,62.19
2023-04-30T18:10:16.840Z,62.01
2023-04-30T18:12:27.328Z,61.84
2023-04-30T18:14:37.029Z,61.84
2023-04-30T18:16:49.884Z,61.75
2023-04-30T18:19:03.005Z,61.77
2023-04-30T18:21:12.496Z,61.50
2023-04-30T18:23:22.627Z,61.49
2023-04-30T18:25:37.306Z,61.30
2023-04-30T18:27:45.800Z,61.19
2023-04-30T18:29:55.748Z,61.25
2023-04-30T18:32:05.562Z,61.38
2023-04-30T18:34:15.389Z,61.51
2023-04-30T18:36:25.197Z,61.56
2023-04-30T18:38:39.136Z,61.27
2023-04-30T18:41:09.110Z,61.49
2023-04-30T18:43:22.063Z,61.64
2023-04-30T18:45:45.960Z,61.76
2023-04-30T18:47:58.807Z,61.75
2023-04-30T18:50:17.641Z,61.72
2023-04-30T18:52:31.032Z,61.95
2023-04-30T18:54:51.555Z,62.08
2023-04-30T18:57:06.714Z,61.96
2023-04-30T18:59:36.331Z,62.03
2023-04-30T19:01:46.898Z,61.82
2023-04-30T19:04:00.439Z,61.48
2023-04-30T19:06:10.112Z,61.41
2023-04-30T19:08:19.547Z,61.51
2023-04-30T19:10:40.624Z,61.23
2023-04-30T19:12:50.131Z,61.00
2023-04-30T19:15:01.249Z,60.95
2023-04-30T19:17:22.017Z,60.89
2023-04-30T19:19:34.646Z,60.78
2023-04-30T19:21:44.359Z,60.87
2023-04-30T19:23:53.948Z,60.77
2023-04-30T19:26:03.808Z,60.72
2023-04-30T19:28:15.028Z,60.48
2023-04-30T19:30:24.940Z,60.30
2023-04-30T19:32:34.467Z,60.52
2023-04-30T19:34:43.848Z,60.36
2023-04-30T19:36:53.170Z,60.14
2023-04-30T19:39:04.623Z,59.92
2023-04-30T19:41:14.024Z,59.97
2023-04-30T19:43:24.581Z,59.84
2023-04-30T19:45:37.865Z,59.70
2023-04-30T19:47:47.542Z,59.22
2023-04-30T19:49:57.335Z,58.79
2023-04-30T19:52:08.333Z,58.84
2023-04-30T19:54:18.254Z,58.71
2023-04-30T19:56:32.367Z,58.60
2023-04-30T19:58:52.829Z,58.24
2023-04-30T20:01:11.774Z,58.08
2023-04-30T20:03:26.587Z,58.33
2023-04-30T20:05:38.011Z,57.95
2023-04-30T20:07:47.763Z,57.94
2023-04-30T20:09:58.053Z,57.74
2023-04-30T20:12:08.064Z,57.69
2023-04-30T20:14:48.023Z,57.70
2023-04-30T20:16:52.739Z,57.31
2023-04-30T20:19:02.816Z,57.16
2023-04-30T20:21:12.206Z,57.24
2023-04-30T20:23:21.867Z,57.14
2023-04-30T20:25:40.572Z,56.92
2023-04-30T20:28:00.112Z,56.92
2023-04-30T20:30:11.446Z,56.82
2023-04-30T20:32:24.130Z,56.64
2023-04-30T20:34:34.059Z,56.70
2023-04-30T20:36:46.844Z,56.66
2023-04-30T20:38:56.767Z,56.59
2023-04-30T20:41:15.298Z,56.37
2023-04-30T20:43:36.241Z,56.23
2023-04-30T20:45:48.723Z,56.17
2023-04-30T20:48:09.501Z,55.99
2023-04-30T20:50:20.813Z,55.88
2023-04-30T20:52:30.465Z,55.78
2023-04-30T20:54:50.671Z,55.68
2023-04-30T20:57:00.453Z,55.66
2023-04-30T20:59:13.298Z,55.70
2023-04-30T21:01:35.697Z,55.29
2023-04-30T21:03:45.552Z,55.15
2023-04-30T21:05:55.451Z,55.18
2023-04-30T21:08:05.027Z,55.07
2023-04-30T21:10:37.076Z,54.93
2023-04-30T21:12:56.797Z,54.72
2023-04-30T21:15:06.849Z,54.41
2023-04-30T21:17:16.269Z,54.36
2023-04-30T21:19:26.159Z,54.34
2023-04-30T21:21:38.880Z,54.17
2023-04-30T21:23:48.625Z,54.17
2023-04-30T21:26:01.787Z,54.01
2023-04-30T21:28:11.087Z,53.36
2023-04-30T21:30:24.374Z,53.13
2023-04-30T21:32:35.452Z,52.99
2023-04-30T21:34:45.829Z,52.65
2023-04-30T21:36:55.570Z,52.79
2023-04-30T21:39:25.283Z,52.65
2023-04-30T21:41:38.100Z,52.44
2023-04-30T21:43:50.342Z,51.74
2023-04-30T21:46:05.062Z,51.40
2023-04-30T21:48:18.108Z,51.29
2023-04-30T21:50:33.778Z,51.22
2023-04-30T21:52:43.213Z,51.20
2023-04-30T21:55:04.122Z,51.04
2023-04-30T21:57:25.086Z,50.95
2023-04-30T21:59:37.249Z,50.91
2023-04-30T22:01:49.620Z,51.16
2023-04-30T22:04:00.410Z,51.12
2023-04-30T22:06:13.193Z,51.01
2023-04-30T22:08:22.854Z,50.73
2023-04-30T22:10:32.999Z,50.73
2023-04-30T22:12:47.765Z,50.36
2023-04-30T22:14:58.569Z,50.24
2023-04-30T22:17:08.097Z,50.38
2023-04-30T22:19:17.603Z,50.40
2023-04-30T22:21:30.596Z,50.33
2023-04-30T22:23:40.093Z,50.26
2023-04-30T22:25:49.890Z,50.31
2023-04-30T22:27:59.659Z,50.23
2023-04-30T22:30:13.605Z,50.19
2023-04-30T22:32:23.191Z,50.07
2023-04-30T22:34:34.067Z,50.13
2023-04-30T22:36:43.418Z,50.25
2023-04-30T22:38:55.825Z,50.14
2023-04-30T22:41:15.601Z,50.25
2023-04-30T22:43:24.924Z,50.14
2023-04-30T22:45:38.577Z,50.08
2023-04-30T22:47:51.519Z,50.06
2023-04-30T22:50:01.444Z,50.07
2023-04-30T22:52:20.532Z,50.27
2023-04-30T22:54:30.150Z,50.38
2023-04-30T22:56:50.994Z,50.38
2023-04-30T22:59:00.559Z,50.29
2023-04-30T23:01:10.316Z,50.15
2023-04-30T23:03:19.941Z,50.36
2023-04-30T23:05:31.620Z,50.19
2023-04-30T23:07:43.731Z,50.03
2023-04-30T23:09:53.323Z,49.86
2023-04-30T23:12:09.398Z,49.41
2023-04-30T23:14:18.997Z,49.59
2023-04-30T23:16:31.928Z,49.50
2023-04-30T23:18:44.751Z,49.61
2023-04-30T23:21:14.134Z,49.56
2023-04-30T23:23:23.867Z,49.63
2023-04-30T23:25:34.979Z,49.36
2023-04-30T23:28:05.408Z,49.18
2023-04-30T23:30:15.844Z,49.22
2023-04-30T23:32:45.763Z,49.14
2023-04-30T23:34:55.380Z,49.21
2023-04-30T23:37:04.816Z,48.83
2023-04-30T23:39:15.842Z,48.19
2023-04-30T23:41:26.366Z,48.21
2023-04-30T23:43:40.116Z,48.03
2023-04-30T23:45:49.545Z,48.02
2023-04-30T23:47:59.683Z,47.79
2023-04-30T23:50:19.375Z,47.33
2023-04-30T23:52:49.221Z,47.27
2023-04-30T23:55:19.486Z,46.96
2023-04-30T23:57:32.455Z,46.96
2023-04-30T23:59:42.931Z,46.74
